Vue régionale

METAR et TAF

Dimanche 24 juin 2018 à 12h45

Visibilités horizontales observées à différents aéroports. Les observations (METAR) et prévisions aéronautiques (TAF) complètes sont disponibles en cliquant sur l’icône correspondante.

  • Luxemburg (ELLX)

    Taf: TAF ELLX 240500Z 2406/2512 33004KT CAVOK TEMPO 2406/2512 SCT030 BKN060 TEMPO 2408/2418 36010KT=

    Metar: METAR ELLX 241020Z VRB04KT 9999 BKN030 18/10 Q1023 NOSIG=

  • Spangdahlem (ETAD)

    Taf: TAF ETAD 240306Z 2403/2509 VRB06KT 9999 FEW030 QNH3014INS BECMG 2412/2413 36009KT 9999 SCT030 QNH3013INS BECMG 2421/2422 VRB06KT 8000 -SHRA BKN020 QNH3015INS BECMG 2507/2508 02009KT 9999 NSW SCT035 QNH3020INS TX19/2414Z TN08/2403Z=

    Metar: METAR ETAD 240956Z AUTO 00000KT 9999 FEW041 FEW150 SCT190 17/07 A3020 RMK AO2 SLP213 T01710074 $=

  • Metz/Nancy (LFJL)

    Taf: TAF LFJL 240500Z 2406/2506 01008KT CAVOK=

    Metar: METAR LFJL 241030Z AUTO 01004KT 310V080 9999 FEW041 BKN140 19/09 Q1022 NOSIG=

  • Saarbrücken/Intl (EDDR)

    Taf: TAF EDDR 240500Z 2406/2506 VRB03KT CAVOK BECMG 2408/2410 34007KT BECMG 2419/2421 04004KT=

    Metar: METAR EDDR 241020Z VRB03KT 9999 SCT039 BKN120 18/09 Q1022 NOSIG=

  • Hahn (EDFH)

    Taf: TAF EDFH 240500Z 2406/2506 25004KT 9999 FEW040 BECMG 2407/2409 34006KT BECMG 2422/2424 BKN010 TEMPO 2502/2506 BKN007=

    Metar: METAR EDFH 241020Z VRB05KT 9999 BKN037 16/07 Q1023=

  • Ramstein (ETAR)

    Taf: TAF ETAR 241009Z 2410/2516 VRB06KT 9999 SCT060 BKN150 QNH3012INS BECMG 2502/2503 01009KT 9999 SCT015 BKN030 QNH3017INS TEMPO 2503/2507 8000 -RA BKN015 OVC030 BECMG 2507/2508 01009KT 9999 FEW015 SCT030 QNH3019INS TX21/2415Z TN09/2503Z=

    Metar: METAR ETAR 240956Z AUTO 32003KT 9999 BKN050 18/09 A3019 RMK AO2 SLP224 T01760087 $=

  • Nancy/Ochey (LFSO)

    Taf: TAF LFSO 240800Z NIL=

    Metar: METAR LFSO 241030Z AUTO 35006KT 320V020 9999 BKN038 BKN150 18/09 Q1022 NOSIG=

  • Liège Bierset (EBLG)

    Taf: TAF EBLG 240520Z 2406/2512 30004KT 9000 SCT015 TEMPO 2406/2408 BKN004 PROB40 TEMPO 2501/2509 3500 BR BKN004=

    Metar: METAR EBLG 241020Z 01005KT 290V050 9999 SCT023 15/09 Q1024 NOSIG=

  • Saint-Dizier (LFSI)

    Taf: TAF LFSI 240800Z 2409/2509 30003KT CAVOK=

    Metar: METAR LFSI 241030Z AUTO 31005KT 250V360 CAVOK 20/10 Q1022=

  • Maastricht/Zuid Limburg (EHBK)

    Taf: TAF EHBK 240510Z 2406/2512 30005KT 9999 BKN006 BECMG 2406/2409 BKN018 PROB40 TEMPO 2406/2408 6000 BKN004 PROB40 2503/2506 4500 BR -DZ BKN008=

    Metar: METAR EHBK 241025Z AUTO 34006KT 300V030 9999 SCT020 SCT026 BKN036 16/10 Q1024 NOSIG=

  • Köln/Köln-Bonn (EDDK)

    Taf: TAF EDDK 240500Z 2406/2512 VRB03KT 9999 BKN040 BECMG 2406/2410 32006KT TEMPO 2502/2507 BKN012=

    Metar: METAR EDDK 241020Z 31009KT 9999 -RA FEW028 BKN095 17/09 Q1023 NOSIG=

  • Charleroi (EBCI)

    Taf: TAF EBCI 240520Z 2406/2512 34005KT 9999 SCT018 PROB30 TEMPO 2406/2408 BKN004 PROB40 TEMPO 2501/2509 3500 BR BKN004=

    Metar: METAR EBCI 241020Z 04005KT 360V080 9999 FEW025 SCT028 16/09 Q1025 NOSIG=

  • Wiesbaden (ETOU)

    Taf: TAF ETOU 240306Z 2403/2509 VRB06KT 9999 SCT030 QNH3015INS BECMG 2412/2413 36009KT 9999 SCT030 QNH3015INS BECMG 2421/2422 VRB06KT 9999 SCT025 QNH3017INS TEMPO 2500/2504 8000 -SHRA BKN020 BECMG 2508/2509 02009KT 9999 SCT035 QNH3011INS TX19/2414Z TN08/2403Z=

    Metar: METAR ETOU 240956Z AUTO 00000KT 9999 BKN036 OVC055 17/10 A3018 RMK AO2 SLP221 T01710095 $=

  • Karlsruhe/Baden-Baden (EDSB)

    Taf: TAF EDSB 240500Z 2406/2506 VRB03KT CAVOK BECMG 2406/2409 01007KT BECMG 2422/2424 VRB03KT=

    Metar: METAR EDSB 241020Z 36007KT 320V040 CAVOK 19/08 Q1022=

  • Chalons/Vatry (LFOK)

    Taf: TAF LFOK 240500Z 2406/2506 36003KT CAVOK BECMG 2408/2411 36013KT=

    Metar: METAR LFOK 241030Z AUTO 34010KT 320V020 CAVOK 20/05 Q1023 NOSIG=

  • Brüssel (EBBR)

    Taf: TAF EBBR 240520Z 2406/2512 34005KT 9999 SCT018 PROB30 TEMPO 2406/2408 BKN014 PROB40 TEMPO 2500/2509 4500 BR BKKN006=

    Metar: METAR EBBR 241020Z 02005KT 330V070 9999 SCT025 17/08 Q1025 NOSIG=

  • Düsseldorf (EDDL)

    Taf: TAF EDDL 240500Z 2406/2512 VRB03KT 9999 BKN040 BECMG 2406/2409 33007KT TEMPO 2502/2508 BKN011=

    Metar: METAR EDDL 241020Z 32008KT 290V350 9999 FEW036 SCT110 BKN300 18/09 Q1023 NOSIG=

  • Luxeuil (LFSX)

    Taf: TAF LFSX 240800Z NIL=

    Metar: METAR LFSX 241030Z AUTO 35004KT 300V090 9999 NCD 19/10 Q1021=

  • Eindhoven (EHEH)

    Taf: TAF EHEH 240530Z 2406/2512 33007KT 4500 BR BKN005 BKN018 BECMG 2406/2408 9999 NSW SCT012 BKN030 BECMG 2408/2410 SCT030 PROB30 TEMPO 2422/2506 SCT018 BKN025=

    Metar: METAR EHEH 241025Z AUTO 35006KT 270V030 9999 FEW030 OVC110 18/09 Q1024 BLU 35007KT 9999 SCT027 BKN100=

  • Niederrhein (EDLV)

    Taf: TAF EDLV 240500Z 2406/2506 VRB03KT 9999 BKN025 BECMG 2406/2409 32005KT TEMPO 2422/2506 BKN012=

    Metar: METAR EDLV 241020Z 31005KT 250V010 9999 FEW027 17/09 Q1024=

  • Dortmund/Wickede (EDLW)

    Taf: TAF EDLW 240500Z 2406/2506 VRB03KT 9999 BKN035 BECMG 2408/2411 31006KT BECMG 2422/2501 BKN012 PROB30 TEMPO 2502/2506 BKN005=

    Metar: METAR EDLW 241020Z 31005KT 240V020 9999 SCT029 BKN060 16/08 Q1023=

  • Stuttgart/Echterdingen (EDDS)

    Taf: TAF EDDS 240500Z 2406/2506 30004KT 9999 SCT040 BECMG 2408/2411 36006KT BECMG 2421/2423 VRB03KT=

    Metar: METAR EDDS 241020Z VRB03KT 9999 SCT040 BKN140 17/07 Q1022 NOSIG=

  • Basel-Mühlhausen (LFSB)

    Taf: TAF LFSB 240500Z 2406/2506 31003KT CAVOK BECMG 2407/2410 36009KT PROB30 TEMPO 2414/2418 FEW060TCU=

    Metar: METAR LFSB 241030Z 34006KT 310V030 CAVOK 19/09 Q1021 NOSIG=

  • Lille (LFQQ)

    Taf: TAF AMD LFQQ 240615Z 2406/2512 VRB03KT CAVOK BECMG 2408/2411 34013KT BECMG 2422/2424 VRB03KT BECMG 2502/2504 BKN008 BECMG 2506/2509 06010KT CAVOK=

    Metar: METAR LFQQ 241030Z AUTO 35009KT 310V070 CAVOK 19/10 Q1024 NOSIG=

  • Paris/Charles de Gaulle (LFPG)

    Taf: TAF LFPG 240500Z 2406/2512 01008KT CAVOK TX22/2414Z TN13/2406Z=

    Metar: METAR LFPG 241030Z 03007KT 350V060 9999 FEW044 BKN260 20/09 Q1024 NOSIG=

  • Paderborn/Lippstadt (EDLP)

    Taf: TAF EDLP 240500Z 2406/2506 VRB03KT 9999 BKN030 BECMG 2406/2409 28006KT BECMG 2421/2424 BKN010 TEMPO 2501/2506 BKN004=

    Metar: METAR EDLP 241020Z 31007KT 270V350 9999 SCT023 BKN050 14/08 Q1023=

  • Paris/Le Bourget (LFPB)

    Taf: TAF LFPB 240500Z 2406/2506 01008KT CAVOK=

    Metar: METAR LFPB 241030Z AUTO 34004KT 270V010 9999 FEW047 21/10 Q1024 NOSIG=

  • Rotterdam (EHRD)

    Taf: TAF EHRD 240437Z 2406/2512 35005KT 9999 FEW020 BECMG 2408/2411 34010KT BECMG 2418/2421 35005KT TEMPO 2421/2507 BKN018 PROB30 TEMPO 2501/2505 6000 SCT007 BKN012 BECMG 2508/2511 32009KT=

    Metar: METAR EHRD 241025Z AUTO 35008KT 270V050 9999 BKN042 17/09 Q1024 NOSIG=

  • Zürich/Kloten (LSZH)

    Taf: TAF LSZH 240825Z 2409/2515 04007KT CAVOK TX21/2415Z TN10/2504Z TX22/2515Z BECMG 2409/2412 9999 FEW050 SCT100 BECMG 2422/2501 VRB03KT BECMG 2507/2510 05008KT=

    Metar: METAR LSZH 241020Z 01006KT 320V060 9999 FEW040 SCT100 BKN130 19/09 Q1021 NOSIG=

  • Oostende/Intl (EBOS)

    Taf: TAF EBOS 240520Z 2406/2512 36008KT CAVOK PROB40 2423/2512 4500 BR BKN005 PROB30 TEMPO 2504/2510 1100 BR BCFG BKN002=

    Metar: METAR EBOS 241020Z 01010KT 340V050 9999 FEW021 16/09 Q1026 NOSIG=

  • Paris/Orly (LFPO)

    Taf: TAF LFPO 240500Z 2406/2512 02008KT CAVOK=

    Metar: METAR LFPO 241030Z 02008KT 340V090 CAVOK 21/09 Q1024 NOSIG=

  • Beauvais (LFOB)

    Taf: TAF LFOB 240500Z 2406/2506 VRB02KT CAVOK BECMG 2409/2412 02010KT=

    Metar: METAR LFOB 241030Z AUTO 35008KT 320V040 CAVOK 20/08 Q1024 NOSIG=

  • Münster/Intl (EDDG)

    Taf: TAF EDDG 240500Z 2406/2506 29006KT 9999 BKN035 BECMG 2418/2421 BKN014 TEMPO 2422/2506 BKN005=

    Metar: METAR EDDG 241020Z 30008KT 270V330 9999 -RA SCT020 BKN035 14/09 Q1023 NOSIG=

  • Illesheim (ETIK)

    Taf: TAF ETIK 240504Z 2405/2511 27009KT 9999 SCT025 BKN060 610609 QNH3015INS BECMG 2411/2412 33009KT 9999 BKN050 OVC060 610609 QNH3013INS BECMG 2502/2503 30009KT 9999 BKN020 QNH3013INS BECMG 2508/2509 32009KT 9999 SCT020 QNH3017INS TX17/2415Z TN05/2503Z=

    Metar: METAR ETIK 240956Z AUTO 32007KT 9999 BKN042 BKN200 18/07 A3018 RMK AO2 SLP218 T01770071 $=

  • Duebendorf (LSMD)

    Taf: TAF LSMD 240925Z 2410/2516 06005KT 9999 FEW070 SCT100=

    Metar: METAR LSMD 240950Z AUTO VRB02KT 9999NDV FEW100 18/09 Q1021 RMK=

  • Villacoublay (LFPV)

    Taf: TAF LFPV 240800Z 2409/2509 02008KT CAVOK=

    Metar: METAR LFPV 241030Z AUTO 36006KT 310V050 CAVOK 20/08 Q1024 NOSIG=

  • Payerne (LSMP)

    Taf: TAF LSMP 240925Z 2410/2516 06008KT CAVOK=

    Metar: METAR LSMP 240950Z VRB05KT 9999 FEW160 18/10 Q1021 RMK BLU+=

  • Amsterdam/Schipol (EHAM)

    Taf: TAF EHAM 240438Z 2406/2512 34005KT 9999 FEW025 BECMG 2407/2410 33012KT BECMG 2418/2421 34006KT TEMPO 2421/2507 BKN018 PROB30 TEMPO 2501/2505 6000 SCT007 BKN012 BECMG 2508/2511 32010KT=

    Metar: METAR EHAM 241025Z 32008KT 270V020 9999 FEW026 17/10 Q1024 NOSIG=

  • Emmen (LSME)

    Taf: TAF LSME 240925Z 2410/2516 VRB03KT 9999 FEW070 SCT100=

    Metar: METAR LSME 240950Z AUTO VRB01KT 9999NDV FEW110 18/09 Q1021 RMK=

  • Friedrichshafen (EDNY)

    Taf: TAF EDNY 240500Z 2406/2506 03006KT 9999 SCT050=

    Metar: METAR EDNY 241020Z VRB03KT CAVOK 19/10 Q1021=

  • Alpnach (LSMA)

    Taf: TAF LSMA 240925Z 2410/2516 05008KT 9999 FEW070 SCT100 PROB30 TEMPO 2415/2418 SHRA FEW060TCU=

    Metar: METAR LSMA 240950Z AUTO VRB02KT 9999NDV SCT100 18/11 Q1021 RMK=

  • Meiringen (LSMM)

    Taf: TAF LSMM 240925Z 2410/2516 09005KT 9999 SCT100 TEMPO 2410/2418 27010KT PROB30 TEMPO 2415/2420 SHRA FEW050TCU=

    Metar: METAR LSMM 240950Z AUTO VRB02KT 9999NDV FEW110 18/10 Q1021 RMK=

  • Nürnberg (EDDN)

    Taf: TAF EDDN 240500Z 2406/2506 31006KT 9999 BKN045 BECMG 2416/2418 VRB03KT BECMG 2422/2424 32005KT TEMPO 2503/2506 BKN012=

    Metar: METAR EDDN 241020Z 31010KT 280V340 9999 FEW037 BKN051 17/08 Q1021 NOSIG=

  • Rouen (LFOP)

    Taf: TAF LFOP 240500Z 2406/2506 VRB02KT CAVOK BECMG 2409/2412 01012KT=

    Metar: METAR LFOP 241030Z AUTO 02004KT 330V070 CAVOK 20/09 Q1024 NOSIG=

  • Evreux (LFOE)

    Taf: TAF LFOE 240800Z 2409/2509 02004KT CAVOK=

    Metar: METAR LFOE 241030Z AUTO 35006KT 310V040 CAVOK 20/10 Q1024 NOSIG=

  • Erfurt/Bindersleben (EDDE)

    Taf: TAF EDDE 240500Z 2406/2506 27005KT CAVOK BECMG 2406/2409 30010KT BECMG 2421/2424 28005KT TEMPO 2421/2503 BKN014=

    Metar: METAR EDDE 241020Z 31010KT 270V350 9999 SCT030 BKN100 15/07 Q1021 NOSIG=